Overview Statistics Trail Chart Weather Telemetry Raw packets
 

This is the latest recevied weather packets stored in our database for station/object K4WCH. If no packets are shown the sender has not sent any weather packets the latest 10 day(s).

<< 4 5 6 7 8 9 10 >>
Time Temp. Humidity Pressure Rain* Wind** Luminosity Snow
1788628706 32.22° C 69% 1013.9 hPa 0 mm - 1036 W/m² -
1788628403 31.67° C 70% 1014.1 hPa 0 mm - 1025 W/m² -
1788628099 31.67° C 71% 1014.1 hPa 0 mm - 765 W/m² -
1788627803 31.67° C 72% 1014.2 hPa 0 mm - 687 W/m² -
1788627494 31.67° C 72% 1014.3 hPa 0 mm - 806 W/m² -
1788627190 32.22° C 71% 1014.3 hPa 0 mm - 1106 W/m² -
1788626890 31.67° C 71% 1014.2 hPa 0 mm - 1118 W/m² -
1788626590 31.11° C 74% 1014.4 hPa 0 mm - 888 W/m² -
1788626285 31.11° C 75% 1014.4 hPa 0 mm - 868 W/m² -
1788625982 31.67° C 75% 1014.6 hPa 0 mm - 1121 W/m² -
1788625677 31.11° C 75% 1014.8 hPa 0 mm - 499 W/m² -
1788625377 31.11° C 76% 1014.7 hPa 0 mm - 955 W/m² -
1788625071 30.56° C 78% 1014.7 hPa 0 mm - 734 W/m² -
1788624770 30.56° C 78% 1015.1 hPa 0 mm - 536 W/m² -
1788624469 30.56° C 78% 1015.1 hPa 0 mm - 474 W/m² -
1788624163 30.56° C 80% 1015.1 hPa 0 mm - 603 W/m² -
1788623858 30° C 79% 1015.1 hPa 0 mm - 457 W/m² -
1788623557 30° C 79% 1015.1 hPa 0 mm - 417 W/m² -
1788623251 30° C 80% 1015.2 hPa 0 mm - 382 W/m² -
1788622947 30° C 81% 1015.2 hPa 0 mm - 374 W/m² -
1788622642 30° C 82% 1015.4 hPa 0 mm - 333 W/m² -
1788622339 30° C 82% 1015.3 hPa 0 mm - 330 W/m² -
1788622033 30° C 81% 1015.2 hPa 0 mm - 316 W/m² -
1788621727 30° C 83% 1015.4 hPa 0 mm - 309 W/m² -
1788621427 29.44° C 82% 1015.3 hPa 0 mm - 300 W/m² -

* Rain latest hour (hover to see other rain measurements)
** Current wind speed in m/s (hover to see current wind gust speed)